Dayton, OH (45433)

2:05 PM EDT on August 21, 2014 (GMT -0400)
KXDIOHBE1 | Change Station
CLOSE
Current Station
Personal Weather Station
Location: Beavercreek, OH
Elevation: 942 ft
Nearby Weather Stations

Elev 942 ft 39.74 °N, 84.08 °W | Updated 4 seconds ago

Light Rain
Light Rain Mist
69.6 °F
Feels Like 69.6 °F
N
0.0
Wind Variable Wind from WNW
Gusts 0.0 mph

Today
High -- | Low -- °F
--% Chance of Precip.
Yesterday
High -- | Low -- °F
Precip. -- in
6:53 AM 8:24 PM
Waning Crescent, 13% visible
Pressure 30.10 in
Visibility 3.0 miles
Clouds Few 500 ft
Mostly Cloudy 1300 ft
Overcast 2100 ft
Dew Point 69 °F
Humidity 98%
Rainfall 0.74 in
Snow Depth Not available.
UV 3 out of 12
Pollen 8.50 out of 12
Ozone Good
PM2.5 Good
Flu Activity Not available.
METAR KFFO 211758Z 22005KT 3SM -RA BR FEW005 BKN013 OVC021 22/21 A3010 RMK AO2A SLP191 P0019 60061 T02150212 10237 20212 50010

More Conditions Fewer Conditions

Pressure 30.10 in
Visibility 3.0 miles
Clouds Few 500 ft
Mostly Cloudy 1300 ft
Overcast 2100 ft
Dew Point 69 °F
Humidity 98%
Rainfall 0.74 in
Snow Depth Not available.
UV 3 out of 12
Pollen 8.50 out of 12
Ozone Good
PM2.5 Good
Flu Activity Not available.
METAR KFFO 211758Z 22005KT 3SM -RA BR FEW005 BKN013 OVC021 22/21 A3010 RMK AO2A SLP191 P0019 60061 T02150212 10237 20212 50010

More Conditions Fewer Conditions

10-Day Weather Forecast

Almanac

Astronomy

Aug. 21, 2014 Rise Set
Actual Time 6:53 AM EDT 8:24 PM EDT
Civil Twilight 6:25 AM EDT 8:52 PM EDT
Nautical Twilight 5:51 AM EDT 9:26 PM EDT
Astronomical Twilight 5:14 AM EDT 10:02 PM EDT
Moon 3:23 AM EDT 5:52 PM EDT
Length of Visible Light 14h 27m
Length of Day
13h 30m
Tomorrow will be 2m 24s shorter.
Waning Crescent, 13% of the Moon is Illuminated
Today
Waning Crescent
Aug 25
New
Sep 2
First Quarter
Sep 8
Full
Sep 15
Last Quarter

Today's Extremes

State Highs State Lows

Community

WunderPhotos

Upload Photos

1,745,987 photos uploaded!

WunderBlogs® & News

Nearby

Air Quality

  Air Quality AQ Index Pollutant
Yesterday Good
OZONE
Yesterday Good
PM2.5
Current Good
PM2.5
Current Good
OZONE
Thursday Moderate
PM2.5
Thursday Good
OZONE
Friday Moderate
PM2.5
Friday Good
OZONE
Saturday Moderate
PM2.5
Saturday Good
OZONE
Sunday Good
PM2.5
Sunday Good
OZONE

Snow Depth

Station Depth Elevation
No new snow has been reported.

Earthquake Activity

City Distance Mag. Time & Date
No recent earthquake activity has been reported nearby.
Minimum magnitude displayed is 2.5.

Coastal Water Temperatures

Place Temperature
No Stations Reporting

Nearby Weather Stations